Airfield :
LOGIN :

Register | Disclaimer

   EN    FR    IT 

 










Legend :    VFR   Marginal VFR   IFR   Intensive IFR   Very Intensive IFR
Visi :
Ceiling :
>= 8 km
>= 3000ft
5 to 8 km
1000 to 3000 ft
1500m to 5 km
500 to 1000 ft
800 to 1500m
200 to 500 ft
< 800m
< 200 ft
Symbols :   Thunderstorms  Fog  Heavy snow  Heavy precipitations  Wind > 20 kt
SIGMETs :     Misc.  Thunderstorms  Icing  Turbulence  Mountain Waves  Volcanic Ashes






- Airport Elevation : 1742 ft
- IATA code : SOF


LBSF - Sofia Int.

CURRENT METAR :
  • 311030Z 30009KT 270V330 9999 FEW030 SCT059 BKN082 14/07 Q1020 NOSIG

EXPIRED METARs :
  • 311000Z 33006KT 290V030 9999 FEW031 13/07 Q1020 NOSIG
  • 310930Z 31007KT 280V340 9999 FEW031 BKN062 13/07 Q1021 NOSIG
  • 310900Z 34007KT 310V010 9999 SCT030 BKN056 12/06 Q1021 NOSIG
  • 310830Z 31008KT 9999 SCT021 BKN057 12/06 Q1021 NOSIG
  • 310800Z 28009KT 260V320 9999 SCT020 BKN033 11/06 Q1022 NOSIG

TAF TAF LBSF
Valid from the 31 at 06:00 until the 01 at 06:00 UTC


310500Z 3106/0106 30013KT 9999 SCT030 BKN050
TEMPO 3110/3115 30018G28KT
TEMPO 3115/3123 5000 RA SCT015 BKN030 OVC050
BECMG 3123/0101 VRB04KT
TEMPO 0102/0106 4000 BR



MET'MAP, your aeronautical weather chart ! - Copyright ORBIFLY December 2007 - Disclaimer

ORBIFLY MET'MAP TEAM :

Programming & Development : Alexandra Zaïnal
Concept & original design : Baudouin d'Aumeries
Assistance for programming : Marc-Olivier Méhu
Technical & hardware support : Manuel Goepfert

Contact : metmap@orbifly.com




SOURCES & CREDITS :

   NOAA